»·PEaware :: N7375Q KSAN-KTSP

N7375Q :: KSAN-KTSP

FLIGHT INFORMATION

Flight Status: Arrived
Operator: Privately registered:
United States
More flights under this callsign
Pilot: Ion I. (24133)
Aircraft: SOCATA TBM-900
(TBM9)
More flights by this aircraft type
Origin: KSAN San Diego Intl-Lindbergh
United States
Destination: KTSP Tehachapi Mun
United States
More flights between these airports :: More routes between these airports
Route: +PADRZ2 CHKNN GLRNO
File this flight plan on PilotEdge
Remarks:
Altitude:
(Current/Filed)
26,000ft
Speed:
(Current/Filed)
250kts
Departed: 28-Jul-20 11:53 AM
Arrived: 28-Jul-20 12:35 PM
Distance/Time
Traveled:
157nm/0:42
Distance/Time
To Go:
Arrived

Flight Plot

Page will automatically refresh every two minutes.


Map Options




Map Legend


Flown Route
Filed Route
Departure Airport
Arrival Airport
Navaid (VOR, NDB)
Fix

Horizontal Profiles

Position Reports

Time Latitude Longitude Heading Altitude Ground
Speed
28-Jul-20 11:42 32.732420 -117.176641 194 22ft 0kts
28-Jul-20 11:42 32.732420 -117.176641 194 22ft 0kts
28-Jul-20 11:44 32.732420 -117.176641 194 22ft 0kts
28-Jul-20 11:45 32.732420 -117.176641 194 22ft 0kts
28-Jul-20 11:45 32.732420 -117.176641 194 22ft 0kts
28-Jul-20 11:47 32.732420 -117.176641 194 22ft 0kts
28-Jul-20 11:47 32.732420 -117.176641 194 22ft 0kts
28-Jul-20 11:48 32.732420 -117.176641 193 22ft 0kts
28-Jul-20 11:50 32.731437 -117.176431 139 22ft 6kts
28-Jul-20 11:50 32.730922 -117.175481 136 23ft 0kts
28-Jul-20 11:51 32.730207 -117.175294 232 20ft 11kts
28-Jul-20 11:52 32.735601 -117.197903 290 717ft 104kts
28-Jul-20 11:53 32.752214 -117.230304 289 2656ft 130kts
28-Jul-20 11:54 32.770406 -117.263939 302 4991ft 126kts
28-Jul-20 11:55 32.790142 -117.301014 301 7148ft 140kts
28-Jul-20 11:56 32.813390 -117.339747 306 9275ft 148kts
28-Jul-20 11:57 32.838673 -117.378882 304 11364ft 151kts
28-Jul-20 11:58 32.864492 -117.419041 304 13502ft 158kts
28-Jul-20 11:59 32.897295 -117.470029 305 14043ft 236kts
28-Jul-20 12:00 32.940183 -117.536726 305 14010ft 264kts
28-Jul-20 12:01 32.985618 -117.607555 305 14003ft 270kts
28-Jul-20 12:02 33.031022 -117.678487 305 14422ft 256kts
28-Jul-20 12:03 33.073313 -117.739294 317 16037ft 228kts
28-Jul-20 12:04 33.115552 -117.782170 317 17528ft 217kts
28-Jul-20 12:05 33.160119 -117.827486 317 19175ft 206kts
28-Jul-20 12:06 33.204165 -117.871876 317 20872ft 211kts
28-Jul-20 12:07 33.250046 -117.916626 316 22577ft 216kts
28-Jul-20 12:08 33.297005 -117.962467 316 24281ft 220kts
28-Jul-20 12:09 33.344378 -118.008774 315 25954ft 222kts
28-Jul-20 12:10 33.398623 -118.062014 316 26060ft 276kts
28-Jul-20 12:11 33.460509 -118.122707 316 26046ft 294kts
28-Jul-20 12:12 33.524773 -118.185852 316 26028ft 299kts
28-Jul-20 12:13 33.592345 -118.245114 330 26013ft 306kts
28-Jul-20 12:14 33.669929 -118.287944 330 26007ft 306kts
28-Jul-20 12:15 33.747571 -118.330619 333 26001ft 307kts
28-Jul-20 12:16 33.835111 -118.336816 355 26008ft 316kts
28-Jul-20 12:17 33.923394 -118.336703 355 26008ft 316kts
28-Jul-20 12:18 34.011740 -118.336673 355 26008ft 315kts
28-Jul-20 12:19 34.099733 -118.336644 355 26009ft 315kts
28-Jul-20 12:20 34.187539 -118.336612 355 26016ft 315kts
28-Jul-20 12:21 34.275550 -118.336583 355 26025ft 315kts
28-Jul-20 12:22 34.368876 -118.336622 356 23907ft 354kts
28-Jul-20 12:23 34.468015 -118.336559 357 21322ft 358kts
28-Jul-20 12:24 34.567594 -118.336510 358 18286ft 354kts
28-Jul-20 12:25 34.664507 -118.336475 358 15324ft 342kts
28-Jul-20 12:26 34.757883 -118.336436 359 12995ft 321kts
28-Jul-20 12:27 34.842932 -118.352623 1 11385ft 315kts
28-Jul-20 12:28 34.927673 -118.333783 11 9386ft 299kts
28-Jul-20 12:29 35.005645 -118.316522 11 8078ft 256kts
28-Jul-20 12:30 35.068373 -118.323775 317 7043ft 220kts
28-Jul-20 12:31 35.100668 -118.378679 308 5731ft 169kts
28-Jul-20 12:32 35.120523 -118.413447 307 4569ft 87kts
28-Jul-20 12:33 35.133375 -118.436349 307 3987ft 75kts
28-Jul-20 12:34 35.134754 -118.440299 149 3983ft 10kts
28-Jul-20 12:35 35.134612 -118.440170 123 3983ft 0kts
28-Jul-20 12:36 35.134612 -118.440170 123 3983ft 0kts
28-Jul-20 12:37 35.134612 -118.440170 123 3983ft 0kts
28-Jul-20 12:38 35.134612 -118.440170 123 3983ft 0kts
28-Jul-20 12:39 35.134612 -118.440170 123 3983ft 0kts
28-Jul-20 12:40 35.134612 -118.440170 123 3983ft 0kts
28-Jul-20 12:41 35.134612 -118.440170 123 3983ft 0kts
28-Jul-20 12:42 35.134612 -118.440170 123 3983ft 0kts
28-Jul-20 12:43 35.134612 -118.440170 123 3983ft 0kts
28-Jul-20 12:44 35.134612 -118.440170 123 3983ft 0kts
28-Jul-20 12:45 35.134612 -118.440170 123 3983ft 0kts
28-Jul-20 12:46 35.134612 -118.440170 123 3983ft 0kts
28-Jul-20 12:47 35.134612 -118.440170 123 3983ft 0kts
28-Jul-20 12:48 35.134612 -118.440170 123 3983ft 0kts

Navigation Log

Ident Type
Flight plan parsing failed, navigation log unavailable